Time;durP1;ratioP1;P1;durP2;ratioP2;P2;SDS_P1;SDS_P2;PMS_P1;PMS_P2;Temp;Humidity;BMP_temperature;BMP_pressure;BME280_temperature;BME280_humidity;BME280_pressure;Samples;Min_cycle;Max_cycle;Signal;HPM_P1;HPM_P2
2022/10/09 00:00:12;;;;;;;3.78;2.10;;;;;;;6.94;73.85;101034.03;5088124;28;20075;-74
2022/10/09 00:02:38;;;;;;;5.80;1.85;;;;;;;6.95;73.75;101027.50;5092721;28;20028;-76
2022/10/09 00:05:04;;;;;;;4.10;1.90;;;;;;;6.88;74.19;101015.88;5032811;28;20040;-74
2022/10/09 00:07:30;;;;;;;5.90;2.15;;;;;;;6.85;73.66;101019.91;5081528;28;20028;-73
2022/10/09 00:09:56;;;;;;;4.30;2.38;;;;;;;6.79;74.68;101018.91;5077776;28;20025;-70
2022/10/09 00:12:22;;;;;;;5.15;2.08;;;;;;;6.73;74.61;101013.53;5074117;28;20123;-73
2022/10/09 00:14:47;;;;;;;4.45;1.90;;;;;;;6.72;74.70;101017.34;5048703;28;20060;-73
2022/10/09 00:17:12;;;;;;;2.72;1.63;;;;;;;6.72;74.34;101012.72;5069884;28;20050;-73
2022/10/09 00:19:38;;;;;;;3.78;1.25;;;;;;;6.71;75.21;101012.94;5044581;28;20059;-73
2022/10/09 00:22:03;;;;;;;2.00;1.40;;;;;;;6.60;75.11;101009.91;5058306;28;20104;-75
2022/10/09 00:24:29;;;;;;;3.83;1.92;;;;;;;6.59;75.25;101012.88;5073131;28;20070;-75
2022/10/09 00:26:54;;;;;;;3.17;1.83;;;;;;;6.53;75.62;101003.72;5057248;28;20427;-74
2022/10/09 00:29:20;;;;;;;4.93;1.77;;;;;;;6.50;75.30;101006.03;5077329;28;20028;-76
2022/10/09 00:31:48;;;;;;;3.85;1.63;;;;;;;6.47;75.42;101001.91;5068857;28;20031;-75
2022/10/09 00:34:14;;;;;;;2.90;1.40;;;;;;;6.43;75.91;101006.94;5065537;28;20020;-75
2022/10/09 00:36:39;;;;;;;5.03;1.90;;;;;;;6.39;75.59;101005.72;5088877;28;20063;-75
2022/10/09 00:39:05;;;;;;;2.67;1.50;;;;;;;6.37;76.06;100993.44;5059615;28;20033;-75
2022/10/09 00:41:32;;;;;;;3.90;1.67;;;;;;;6.32;75.39;100991.38;5073776;28;20035;-75
2022/10/09 00:44:01;;;;;;;4.28;1.95;;;;;;;6.31;75.88;100995.16;5062095;28;20043;-75
2022/10/09 00:46:46;;;;;;;2.28;1.50;;;;;;;6.31;76.24;100989.72;5057218;28;20044;-75
2022/10/09 00:49:30;;;;;;;3.15;1.70;;;;;;;6.37;75.85;100994.25;5082650;28;20062;-74
2022/10/09 00:52:02;;;;;;;2.87;1.63;;;;;;;6.38;76.41;100992.38;5093022;28;20059;-74
2022/10/09 00:54:30;;;;;;;2.45;1.48;;;;;;;6.35;76.36;100984.66;5065030;28;20077;-74
2022/10/09 00:56:56;;;;;;;2.88;1.38;;;;;;;6.28;76.99;100979.31;5076405;28;20032;-74
2022/10/09 00:59:22;;;;;;;3.05;1.55;;;;;;;6.21;76.29;100973.94;5084015;28;20112;-75
2022/10/09 01:01:48;;;;;;;3.22;1.60;;;;;;;6.22;76.43;100978.31;5060934;28;20032;-75
2022/10/09 01:04:13;;;;;;;5.47;2.15;;;;;;;6.20;76.96;100983.13;5084565;28;20021;-74
2022/10/09 01:06:55;;;;;;;3.85;1.83;;;;;;;6.17;76.78;100982.75;5071818;28;20048;-75
2022/10/09 01:09:30;;;;;;;3.95;1.75;;;;;;;6.17;77.45;100977.34;5078506;28;20016;-74
2022/10/09 01:11:56;;;;;;;4.50;1.75;;;;;;;6.16;77.25;100975.66;5053520;28;20025;-75
2022/10/09 01:14:28;;;;;;;2.90;1.80;;;;;;;6.14;77.13;100965.03;5066720;28;20392;-74
2022/10/09 01:17:19;;;;;;;4.82;1.88;;;;;;;6.16;77.79;100965.63;5074207;28;20055;-74
2022/10/09 01:20:19;;;;;;;4.80;2.10;;;;;;;6.19;78.30;100967.06;5071141;28;20105;-74
2022/10/09 01:23:10;;;;;;;4.65;1.90;;;;;;;6.15;78.24;100957.69;5051555;28;20020;-74
2022/10/09 01:26:07;;;;;;;5.75;1.60;;;;;;;6.18;78.39;100962.72;5075702;28;20581;-74
2022/10/09 01:28:34;;;;;;;4.07;1.90;;;;;;;6.17;77.94;100955.59;5042425;28;20043;-74
2022/10/09 01:31:03;;;;;;;3.72;1.88;;;;;;;6.17;78.29;100961.03;5046728;28;20017;-75
2022/10/09 01:33:31;;;;;;;2.53;1.50;;;;;;;6.18;78.57;100951.84;5073131;28;20089;-73
2022/10/09 01:35:58;;;;;;;2.17;1.10;;;;;;;6.15;77.95;100954.97;5073283;28;20043;-73
2022/10/09 01:38:24;;;;;;;3.22;1.58;;;;;;;6.15;78.16;100949.56;5074993;28;20519;-74
2022/10/09 01:40:52;;;;;;;4.32;1.92;;;;;;;6.18;78.58;100949.13;5067440;28;20028;-75
2022/10/09 01:43:18;;;;;;;8.90;2.75;;;;;;;6.18;79.45;100947.22;5079444;28;20012;-74
2022/10/09 01:45:46;;;;;;;3.83;2.10;;;;;;;6.20;79.60;100950.53;5070713;28;20568;-76
2022/10/09 01:48:16;;;;;;;3.35;2.00;;;;;;;6.20;79.62;100936.97;5056272;28;20074;-73
2022/10/09 01:50:50;;;;;;;2.78;1.60;;;;;;;6.20;79.80;100938.84;5079728;28;20029;-75
2022/10/09 01:53:18;;;;;;;3.10;1.77;;;;;;;6.19;79.41;100942.63;5092001;28;20749;-74
2022/10/09 01:55:58;;;;;;;3.13;1.65;;;;;;;6.18;80.36;100936.38;5079780;28;20024;-73
2022/10/09 01:58:44;;;;;;;5.68;1.77;;;;;;;6.18;80.05;100925.50;5060802;28;20032;-74
2022/10/09 02:01:17;;;;;;;4.90;2.88;;;;;;;6.19;80.09;100927.19;5078929;28;20031;-74
2022/10/09 02:03:47;;;;;;;6.13;2.80;;;;;;;6.22;80.54;100915.00;5074456;28;20039;-73
2022/10/09 02:06:15;;;;;;;5.57;2.35;;;;;;;6.20;80.55;100911.69;5075439;28;20032;-73
2022/10/09 02:08:44;;;;;;;6.57;2.20;;;;;;;6.19;80.61;100899.16;5070693;28;20374;-73
2022/10/09 02:11:13;;;;;;;4.38;2.13;;;;;;;6.17;81.64;100895.88;5076000;28;20045;-74
2022/10/09 02:13:47;;;;;;;4.50;2.38;;;;;;;6.15;81.71;100897.94;5066435;28;20027;-74
2022/10/09 02:16:22;;;;;;;3.17;1.67;;;;;;;6.11;81.37;100887.53;5073797;28;20024;-76
2022/10/09 02:19:02;;;;;;;;;;;;;;;6.15;81.71;100893.38;5084447;28;20112;-75
2022/10/09 02:21:38;;;;;;;8.20;2.95;;;;;;;6.15;81.58;100887.09;5080842;28;19912;-76
2022/10/09 02:24:07;;;;;;;5.80;2.70;;;;;;;6.16;81.30;100883.31;5072834;28;20084;-76
2022/10/09 02:26:33;;;;;;;4.32;2.38;;;;;;;6.12;81.80;100866.66;5062003;28;20086;-75
2022/10/09 02:28:58;;;;;;;4.93;2.72;;;;;;;6.10;81.88;100872.34;5086574;28;20033;-75
2022/10/09 02:31:29;;;;;;;5.47;2.78;;;;;;;6.10;82.25;100869.63;5040583;28;20056;-75
2022/10/09 02:34:02;;;;;;;6.40;2.42;;;;;;;6.11;83.06;100860.38;5079006;28;20362;-75
2022/10/09 02:36:28;;;;;;;4.95;2.40;;;;;;;6.07;83.37;100853.75;5047205;28;20028;-74
2022/10/09 02:38:54;;;;;;;5.65;2.53;;;;;;;6.16;83.78;100856.16;5054427;28;20430;-74
2022/10/09 02:41:20;;;;;;;7.28;2.45;;;;;;;6.10;82.90;100856.03;5052890;28;20033;-73
2022/10/09 02:43:46;;;;;;;5.50;2.33;;;;;;;6.06;83.35;100845.81;5076357;28;20111;-74
2022/10/09 02:46:11;;;;;;;5.18;2.42;;;;;;;5.99;83.30;100835.06;5069757;28;20024;-75
2022/10/09 02:48:37;;;;;;;6.95;2.22;;;;;;;6.02;83.43;100834.59;5099420;28;20456;-75
2022/10/09 02:51:03;;;;;;;5.68;2.63;;;;;;;6.03;83.80;100822.69;5082485;28;20051;-75
2022/10/09 02:53:28;;;;;;;6.93;2.85;;;;;;;6.06;83.70;100830.38;5050775;28;20132;-74
2022/10/09 02:55:54;;;;;;;8.88;2.75;;;;;;;6.02;83.95;100822.94;5062928;28;20025;-74
2022/10/09 02:58:19;;;;;;;6.55;3.10;;;;;;;6.00;84.60;100815.00;5071839;28;20040;-73
2022/10/09 03:00:49;;;;;;;5.80;2.70;;;;;;;6.07;84.61;100809.47;5085043;28;20035;-74
2022/10/09 03:03:15;;;;;;;7.45;2.50;;;;;;;6.08;84.52;100806.53;5085975;28;20016;-74
2022/10/09 03:05:40;;;;;;;6.60;1.98;;;;;;;5.98;84.05;100789.97;5048201;28;20032;-72
2022/10/09 03:08:06;;;;;;;6.75;2.13;;;;;;;6.02;84.59;100801.22;5066674;28;20024;-74
2022/10/09 03:10:31;;;;;;;5.35;2.40;;;;;;;5.94;84.93;100799.56;5074692;28;20043;-72
2022/10/09 03:12:57;;;;;;;8.27;3.00;;;;;;;5.95;84.76;100791.19;5061481;28;20029;-73
2022/10/09 03:15:23;;;;;;;7.70;2.78;;;;;;;5.95;84.43;100779.53;5029283;28;20029;-73
2022/10/09 03:17:48;;;;;;;6.85;2.63;;;;;;;5.96;84.24;100781.19;5076374;28;20051;-73
2022/10/09 03:20:14;;;;;;;7.10;2.47;;;;;;;5.98;84.77;100784.53;5061488;28;20025;-73
2022/10/09 03:22:40;;;;;;;7.78;3.22;;;;;;;5.96;85.12;100775.75;5045431;28;20583;-73
2022/10/09 03:25:06;;;;;;;8.10;2.90;;;;;;;5.98;85.46;100767.41;5058738;28;20028;-74
2022/10/09 03:27:32;;;;;;;7.38;2.88;;;;;;;5.99;85.26;100772.63;5050575;28;20028;-73
2022/10/09 03:29:58;;;;;;;4.88;2.38;;;;;;;6.02;86.40;100774.88;5050930;28;20032;-74
2022/10/09 03:32:29;;;;;;;6.28;2.90;;;;;;;6.03;86.14;100764.84;5062610;28;20105;-75
2022/10/09 03:34:55;;;;;;;6.95;2.65;;;;;;;6.00;85.80;100765.28;5061836;28;20024;-74
2022/10/09 03:37:20;;;;;;;5.40;2.78;;;;;;;5.97;86.37;100761.13;5045902;28;20092;-74
2022/10/09 03:39:46;;;;;;;5.43;2.45;;;;;;;5.95;86.07;100755.91;5058626;28;20036;-74
2022/10/09 03:42:11;;;;;;;4.68;2.20;;;;;;;6.00;87.10;100760.72;5031276;28;20016;-74
2022/10/09 03:44:36;;;;;;;6.93;2.30;;;;;;;6.01;86.58;100762.34;5078922;28;20033;-74
2022/10/09 03:47:02;;;;;;;6.93;2.33;;;;;;;6.03;86.77;100767.53;4985798;28;20070;-73
2022/10/09 03:49:27;;;;;;;3.35;1.75;;;;;;;6.04;86.45;100763.78;5068269;28;20032;-73
2022/10/09 03:51:53;;;;;;;4.97;1.88;;;;;;;6.02;86.94;100755.06;5066904;28;20108;-71
2022/10/09 03:54:18;;;;;;;4.43;2.13;;;;;;;6.03;87.48;100754.81;5051309;28;20028;-74
2022/10/09 03:56:43;;;;;;;3.42;1.67;;;;;;;5.99;87.45;100756.31;5066739;28;20035;-72
2022/10/09 03:59:09;;;;;;;2.45;1.48;;;;;;;5.95;87.09;100750.47;5028295;28;20052;-72
2022/10/09 04:01:35;;;;;;;4.32;1.65;;;;;;;5.95;86.90;100758.63;5019396;28;20538;-71
2022/10/09 04:04:00;;;;;;;4.15;2.00;;;;;;;5.95;87.12;100757.81;5044567;28;20033;-71
2022/10/09 04:06:26;;;;;;;4.18;1.65;;;;;;;5.94;86.81;100756.97;5039945;28;20035;-71
2022/10/09 04:08:51;;;;;;;5.28;1.90;;;;;;;5.95;87.17;100755.91;5028607;28;20048;-71
2022/10/09 04:11:17;;;;;;;2.80;1.88;;;;;;;5.93;87.31;100752.59;5042656;28;20039;-70
2022/10/09 04:13:43;;;;;;;3.88;1.83;;;;;;;5.93;87.40;100754.50;5021609;28;20057;-72
2022/10/09 04:16:11;;;;;;;4.82;1.90;;;;;;;5.90;87.50;100744.91;5037988;28;20119;-71
2022/10/09 04:18:43;;;;;;;4.28;1.92;;;;;;;5.92;87.20;100741.97;5040081;28;20064;-72
2022/10/09 04:21:09;;;;;;;8.98;2.63;;;;;;;5.96;87.28;100743.19;5047330;28;20047;-72
2022/10/09 04:23:34;;;;;;;4.53;2.53;;;;;;;5.99;86.86;100748.19;5025307;28;20774;-72
2022/10/09 04:26:00;;;;;;;4.38;2.20;;;;;;;5.98;87.36;100746.53;5020707;28;20075;-72
2022/10/09 04:28:27;;;;;;;5.57;2.17;;;;;;;6.02;87.68;100736.88;5039140;28;20127;-72
2022/10/09 04:30:52;;;;;;;4.10;1.98;;;;;;;6.03;87.42;100735.81;5042152;28;20024;-72
2022/10/09 04:33:18;;;;;;;5.10;2.05;;;;;;;6.06;88.00;100738.06;5004651;28;20044;-72
2022/10/09 04:35:45;;;;;;;4.68;2.28;;;;;;;6.09;87.47;100725.94;5020451;28;20044;-71
2022/10/09 04:38:11;;;;;;;4.40;2.05;;;;;;;6.09;88.23;100726.75;4998998;28;20032;-71
2022/10/09 04:40:37;;;;;;;3.70;2.03;;;;;;;6.05;87.43;100720.13;5043752;28;20744;-72
2022/10/09 04:43:02;;;;;;;4.32;1.92;;;;;;;6.09;87.68;100721.31;5048882;28;20090;-72
2022/10/09 04:45:28;;;;;;;4.10;2.15;;;;;;;6.06;87.63;100721.78;5032690;28;20043;-73
2022/10/09 04:47:53;;;;;;;2.83;2.17;;;;;;;6.00;88.53;100725.41;5021362;28;20092;-72
2022/10/09 04:50:19;;;;;;;6.82;2.30;;;;;;;5.98;88.45;100718.56;5010449;28;20061;-71
2022/10/09 04:52:44;;;;;;;7.68;2.00;;;;;;;6.00;88.96;100716.44;5021648;28;20036;-72
2022/10/09 04:55:11;;;;;;;3.75;1.73;;;;;;;6.03;88.71;100716.81;5009747;28;20033;-71
2022/10/09 04:57:37;;;;;;;3.85;1.92;;;;;;;6.06;88.01;100710.06;5046026;28;20036;-70
2022/10/09 05:00:04;;;;;;;5.40;1.95;;;;;;;6.11;88.83;100713.75;5035844;28;20649;-72
2022/10/09 05:02:30;;;;;;;5.72;2.28;;;;;;;6.15;88.79;100711.44;5034804;28;20489;-71
2022/10/09 05:04:56;;;;;;;4.63;2.00;;;;;;;6.25;88.19;100708.16;5048518;28;20024;-72
2022/10/09 05:07:22;;;;;;;4.45;1.67;;;;;;;6.42;88.01;100709.16;5017366;28;20435;-71
2022/10/09 05:09:49;;;;;;;4.15;2.10;;;;;;;6.64;87.77;100711.34;5052051;28;20029;-72
2022/10/09 05:12:15;;;;;;;5.93;1.70;;;;;;;6.67;87.89;100715.50;5030773;28;20059;-72
2022/10/09 05:14:43;;;;;;;6.90;2.15;;;;;;;6.58;88.01;100713.09;5055248;28;20021;-72
2022/10/09 05:17:08;;;;;;;9.15;3.15;;;;;;;6.51;87.50;100701.50;5031761;28;20029;-72
2022/10/09 05:19:34;;;;;;;2.95;1.85;;;;;;;6.38;87.91;100694.41;5044194;28;20038;-72
2022/10/09 05:22:00;;;;;;;4.22;2.05;;;;;;;6.41;87.99;100706.66;5057790;28;20041;-73
2022/10/09 05:24:26;;;;;;;3.60;2.00;;;;;;;6.37;87.92;100695.44;5063570;28;20146;-72
2022/10/09 05:26:51;;;;;;;3.72;2.00;;;;;;;6.32;87.42;100695.31;5043112;28;20033;-72
2022/10/09 05:29:17;;;;;;;7.60;2.40;;;;;;;6.31;87.66;100693.66;5073379;28;20020;-71
2022/10/09 05:31:42;;;;;;;10.68;2.00;;;;;;;6.34;88.24;100689.63;5045984;28;20048;-71
2022/10/09 05:34:08;;;;;;;11.30;2.13;;;;;;;6.36;87.83;100684.81;5058384;28;20038;-73
2022/10/09 05:36:34;;;;;;;5.65;2.30;;;;;;;6.51;88.92;100692.53;5059368;28;20072;-74
2022/10/09 05:39:02;;;;;;;4.80;1.75;;;;;;;6.54;88.25;100684.75;5066560;28;20075;-72
2022/10/09 05:41:28;;;;;;;4.90;1.65;;;;;;;6.56;89.13;100682.63;5051634;28;20072;-70
2022/10/09 05:43:58;;;;;;;8.63;1.83;;;;;;;6.61;88.58;100676.50;5072641;28;20047;-70
2022/10/09 05:46:24;;;;;;;3.75;1.77;;;;;;;6.58;88.98;100679.66;5041070;28;20429;-71
2022/10/09 05:48:59;;;;;;;3.30;1.80;;;;;;;6.56;89.04;100673.66;5051879;28;20025;-71
2022/10/09 05:51:31;;;;;;;5.15;2.00;;;;;;;6.60;89.43;100674.81;5067955;28;20020;-71
2022/10/09 05:54:06;;;;;;;2.05;1.33;;;;;;;6.42;89.31;100654.81;5057330;28;20028;-75
2022/10/09 05:56:36;;;;;;;4.60;1.40;;;;;;;6.52;89.76;100670.56;5052285;28;20066;-72
2022/10/09 05:59:10;;;;;;;2.50;1.23;;;;;;;6.54;89.23;100667.59;5065039;28;20044;-73
2022/10/09 06:01:41;;;;;;;5.18;1.80;;;;;;;6.56;89.31;100670.94;5083847;28;20043;-73
2022/10/09 06:04:11;;;;;;;2.60;1.30;;;;;;;6.61;89.97;100673.78;5082304;28;20040;-71
2022/10/09 06:06:38;;;;;;;2.50;1.33;;;;;;;6.62;90.20;100667.28;5074227;28;20035;-72
2022/10/09 06:09:07;;;;;;;5.05;1.95;;;;;;;6.68;90.70;100663.63;5059334;28;20056;-71
2022/10/09 06:11:36;;;;;;;4.95;2.25;;;;;;;6.73;90.70;100673.78;5062375;28;20028;-71
2022/10/09 06:14:03;;;;;;;5.70;1.90;;;;;;;6.73;89.83;100668.34;5082143;28;20040;-72
2022/10/09 06:16:35;;;;;;;4.82;1.88;;;;;;;6.73;90.91;100666.47;5055977;28;20092;-72
2022/10/09 06:19:04;;;;;;;3.83;1.65;;;;;;;6.79;90.48;100660.09;5052421;28;20033;-72
2022/10/09 06:21:30;;;;;;;3.85;1.80;;;;;;;6.80;90.33;100667.19;5076480;28;20028;-72
2022/10/09 06:23:59;;;;;;;2.40;1.23;;;;;;;6.85;91.65;100662.91;5064682;28;20029;-72
2022/10/09 06:26:29;;;;;;;2.50;1.48;;;;;;;6.91;91.62;100659.28;5060624;28;20079;-72
2022/10/09 06:28:55;;;;;;;2.45;1.08;;;;;;;6.89;90.97;100653.25;5065581;28;20479;-72
2022/10/09 06:31:23;;;;;;;3.17;1.52;;;;;;;6.87;91.76;100649.94;5061243;28;20119;-72
2022/10/09 06:33:52;;;;;;;4.32;1.80;;;;;;;6.80;91.18;100648.16;5055291;28;21333;-72
2022/10/09 06:36:29;;;;;;;2.95;1.35;;;;;;;6.78;91.35;100642.13;5058145;28;20133;-74
2022/10/09 06:38:57;;;;;;;3.72;1.52;;;;;;;6.80;91.19;100645.44;5057431;28;20047;-72
2022/10/09 06:41:25;;;;;;;2.78;1.83;;;;;;;6.77;91.29;100636.91;5044743;28;20340;-72
2022/10/09 06:43:53;;;;;;;5.82;1.67;;;;;;;6.70;91.28;100628.06;5068736;28;20071;-73
2022/10/09 06:46:21;;;;;;;3.55;1.52;;;;;;;6.74;90.41;100629.25;5062943;28;20017;-73
2022/10/09 06:48:47;;;;;;;3.33;1.55;;;;;;;6.75;91.01;100631.72;5068389;28;20017;-73
2022/10/09 06:51:18;;;;;;;4.57;1.35;;;;;;;6.79;91.14;100637.50;5059128;28;20030;-72
2022/10/09 06:53:49;;;;;;;2.05;1.25;;;;;;;6.80;90.76;100626.44;5068254;28;20028;-74
2022/10/09 06:56:16;;;;;;;4.85;1.85;;;;;;;6.84;90.98;100628.66;5064609;28;20072;-73
2022/10/09 06:58:42;;;;;;;6.88;1.60;;;;;;;6.89;90.61;100626.06;5055103;28;20017;-73
2022/10/09 07:01:16;;;;;;;3.17;1.48;;;;;;;7.00;89.67;100627.94;5060066;28;20057;-72
2022/10/09 07:03:45;;;;;;;3.53;1.63;;;;;;;7.10;90.18;100638.25;5050335;28;20021;-72
2022/10/09 07:06:16;;;;;;;6.28;1.73;;;;;;;7.19;89.75;100635.97;5069975;28;20024;-74
2022/10/09 07:08:47;;;;;;;2.83;1.20;;;;;;;7.32;89.20;100641.16;5066092;28;20016;-74
2022/10/09 07:11:20;;;;;;;2.03;1.02;;;;;;;7.40;89.89;100643.50;5055507;28;20044;-75
2022/10/09 07:13:48;;;;;;;6.72;1.45;;;;;;;7.52;89.82;100640.78;5052235;28;20136;-74
2022/10/09 07:16:18;;;;;;;3.97;1.63;;;;;;;7.66;89.76;100636.69;5067272;28;20021;-74
2022/10/09 07:18:44;;;;;;;4.20;1.38;;;;;;;7.77;88.69;100637.72;5056180;28;20036;-72
2022/10/09 07:21:09;;;;;;;2.00;1.40;;;;;;;7.94;88.73;100634.22;5067148;28;20045;-73
2022/10/09 07:23:38;;;;;;;2.45;1.27;;;;;;;8.04;88.50;100639.88;5049355;28;20172;-72
2022/10/09 07:26:19;;;;;;;4.57;1.42;;;;;;;8.16;88.47;100640.66;5065368;28;20028;-72
2022/10/09 07:28:46;;;;;;;4.88;1.63;;;;;;;8.30;88.35;100634.91;5058853;28;20017;-72
2022/10/09 07:31:11;;;;;;;3.78;1.20;;;;;;;8.43;87.58;100629.13;5052290;28;20107;-73
2022/10/09 07:33:37;;;;;;;2.17;1.40;;;;;;;8.71;87.30;100636.41;5054974;28;20123;-73
2022/10/09 07:36:04;;;;;;;4.00;1.20;;;;;;;8.95;86.96;100632.69;5040541;28;20088;-71
2022/10/09 07:38:30;;;;;;;5.10;1.42;;;;;;;9.16;86.92;100634.63;5049591;28;20033;-72
2022/10/09 07:41:03;;;;;;;3.72;1.10;;;;;;;9.35;85.54;100640.63;5064451;28;20044;-75
2022/10/09 07:43:29;;;;;;;5.30;1.70;;;;;;;9.54;85.62;100637.59;5068626;28;20021;-72
2022/10/09 07:45:59;;;;;;;3.75;1.40;;;;;;;9.73;84.92;100638.09;5051133;28;20031;-72
2022/10/09 07:48:25;;;;;;;2.58;1.25;;;;;;;9.89;84.57;100631.72;5070983;28;20352;-71
2022/10/09 07:50:50;;;;;;;2.20;1.10;;;;;;;10.04;84.09;100628.31;5048152;28;20035;-71
2022/10/09 07:53:15;;;;;;;2.40;0.88;;;;;;;10.19;84.13;100632.28;5065132;28;20021;-73
2022/10/09 07:55:45;;;;;;;3.47;1.08;;;;;;;10.33;83.57;100627.25;5054141;28;20445;-73
2022/10/09 07:58:12;;;;;;;2.60;1.00;;;;;;;10.51;83.51;100640.53;5058635;28;20024;-75
2022/10/09 08:00:40;;;;;;;1.90;0.90;;;;;;;10.61;83.07;100629.69;5053398;28;20809;-74
2022/10/09 08:03:06;;;;;;;5.10;1.55;;;;;;;10.81;82.52;100629.03;5048887;28;20092;-76
2022/10/09 08:05:32;;;;;;;4.03;1.52;;;;;;;10.96;82.88;100641.16;5065528;28;20051;-74
2022/10/09 08:07:57;;;;;;;3.70;1.20;;;;;;;11.14;82.02;100637.16;5057028;28;20110;-74
2022/10/09 08:10:23;;;;;;;3.55;1.58;;;;;;;11.27;81.61;100617.56;5056023;28;20064;-72
2022/10/09 08:12:49;;;;;;;2.95;1.13;;;;;;;11.59;81.12;100622.06;5068134;28;20033;-72
2022/10/09 08:15:14;;;;;;;5.10;1.17;;;;;;;11.83;80.81;100621.59;5055897;28;20020;-72
2022/10/09 08:17:40;;;;;;;2.53;1.00;;;;;;;12.12;80.47;100618.41;5033953;28;20037;-73
2022/10/09 08:20:09;;;;;;;2.88;1.25;;;;;;;12.45;79.28;100627.22;5056010;28;20028;-74
2022/10/09 08:22:34;;;;;;;3.13;1.55;;;;;;;12.68;78.65;100626.66;5058893;28;20016;-70
2022/10/09 08:25:03;;;;;;;3.25;1.77;;;;;;;13.02;78.70;100623.31;5058759;28;20105;-75
2022/10/09 08:27:29;;;;;;;6.53;2.92;;;;;;;13.33;77.41;100626.00;5067705;28;20041;-71
2022/10/09 08:29:54;;;;;;;6.75;3.22;;;;;;;13.58;77.12;100616.88;5043068;28;20496;-73
2022/10/09 08:32:19;;;;;;;7.35;3.17;;;;;;;13.96;76.00;100619.16;5061940;28;20041;-72
2022/10/09 08:34:46;;;;;;;7.50;3.15;;;;;;;14.20;75.43;100607.47;5061927;28;20495;-73
2022/10/09 08:37:11;;;;;;;5.18;2.47;;;;;;;14.33;74.87;100606.81;5071353;28;20020;-72
2022/10/09 08:39:36;;;;;;;8.23;2.90;;;;;;;14.47;74.31;100612.47;5053715;28;20029;-73
2022/10/09 08:42:02;;;;;;;4.78;1.80;;;;;;;14.58;73.55;100610.47;5046962;28;20482;-73
2022/10/09 08:44:34;;;;;;;3.97;1.45;;;;;;;14.58;72.15;100605.75;5052676;28;20028;-73
2022/10/09 08:47:22;;;;;;;5.32;1.40;;;;;;;14.67;72.22;100608.75;5068040;28;20025;-74
2022/10/09 08:50:21;;;;;;;5.65;1.67;;;;;;;14.73;71.60;100612.28;5072061;28;20016;-73
2022/10/09 08:52:52;;;;;;;2.20;1.13;;;;;;;15.03;70.83;100607.59;5060601;28;20040;-72
2022/10/09 08:55:31;;;;;;;8.50;1.52;;;;;;;15.30;69.21;100593.22;5061975;28;20013;-74
2022/10/09 08:58:03;;;;;;;2.92;1.23;;;;;;;15.72;68.38;100591.59;5063719;28;20021;-74
2022/10/09 09:00:43;;;;;;;1.95;1.00;;;;;;;16.20;67.21;100594.22;5059712;28;20063;-74
2022/10/09 09:03:35;;;;;;;2.35;1.33;;;;;;;16.99;65.22;100586.31;5061714;28;20040;-74
2022/10/09 09:06:07;;;;;;;5.78;1.30;;;;;;;17.57;63.40;100590.41;5074469;28;20029;-73
2022/10/09 09:09:00;;;;;;;2.20;1.00;;;;;;;18.56;60.94;100587.84;5075882;28;20021;-71
2022/10/09 09:11:37;;;;;;;3.13;0.98;;;;;;;19.66;57.24;100574.28;5049940;28;20033;-73
2022/10/09 09:14:26;;;;;;;3.42;1.20;;;;;;;20.50;55.28;100587.22;5066469;28;20094;-72
2022/10/09 09:17:03;;;;;;;6.22;1.10;;;;;;;21.47;52.91;100584.94;5066726;28;20032;-71
2022/10/09 09:20:07;;;;;;;5.88;1.70;;;;;;;23.12;48.75;100584.66;5065888;28;20159;-72
2022/10/09 09:22:33;;;;;;;4.20;1.98;;;;;;;24.08;46.03;100577.72;5066015;28;20058;-74
2022/10/09 09:24:59;;;;;;;2.70;0.90;;;;;;;24.58;44.59;100573.50;5042039;28;20119;-72
2022/10/09 09:27:32;;;;;;;5.30;1.13;;;;;;;25.27;42.99;100578.88;5065155;28;20056;-72
2022/10/09 09:30:22;;;;;;;4.03;1.08;;;;;;;25.29;42.83;100560.94;5064209;28;20021;-72
2022/10/09 09:32:59;;;;;;;4.68;1.33;;;;;;;24.16;42.15;100567.56;5072285;28;20031;-72
2022/10/09 09:36:02;;;;;;;4.43;1.42;;;;;;;22.99;44.63;100569.88;5072521;28;20091;-73
2022/10/09 09:38:27;;;;;;;6.18;1.50;;;;;;;22.72;44.59;100563.78;5062171;28;20032;-72
2022/10/09 09:40:53;;;;;;;6.40;1.42;;;;;;;20.84;47.57;100572.44;5061153;28;20020;-74
2022/10/09 09:43:22;;;;;;;5.22;1.30;;;;;;;19.49;50.30;100558.44;5029558;28;20048;-73
2022/10/09 09:45:51;;;;;;;4.57;1.30;;;;;;;18.88;52.46;100555.47;5053912;28;20033;-73
2022/10/09 09:48:48;;;;;;;6.22;1.38;;;;;;;18.44;52.77;100557.13;5072308;28;20013;-73
2022/10/09 09:51:28;;;;;;;4.65;1.30;;;;;;;18.36;52.97;100549.59;5063369;28;20025;-73
2022/10/09 09:53:59;;;;;;;6.22;1.40;;;;;;;18.43;51.90;100547.22;5054673;28;20054;-76
2022/10/09 09:56:38;;;;;;;4.20;1.05;;;;;;;18.55;51.55;100547.44;5058954;28;20048;-74
2022/10/09 09:59:05;;;;;;;7.22;1.20;;;;;;;18.98;50.39;100535.78;5044247;28;20364;-73
2022/10/09 10:01:32;;;;;;;7.53;1.35;;;;;;;19.44;47.28;100541.13;5043790;28;20060;-71
2022/10/09 10:04:01;;;;;;;7.43;1.27;;;;;;;19.07;48.65;100540.53;5066019;28;20036;-71
2022/10/09 10:06:43;;;;;;;4.93;1.10;;;;;;;18.95;48.52;100539.22;5060248;28;20025;-72
2022/10/09 10:09:14;;;;;;;5.30;1.10;;;;;;;18.67;48.36;100528.28;5060370;28;20013;-72
2022/10/09 10:12:00;;;;;;;11.10;1.40;;;;;;;18.14;48.43;100532.69;5076903;28;20035;-72
2022/10/09 10:14:26;;;;;;;7.68;1.10;;;;;;;17.84;49.88;100520.38;5074607;28;20100;-73
2022/10/09 10:16:54;;;;;;;6.78;1.15;;;;;;;17.86;49.82;100533.88;5058828;28;21148;-73
2022/10/09 10:19:23;;;;;;;10.32;1.08;;;;;;;17.69;50.42;100529.84;5062133;28;20071;-72
2022/10/09 10:22:00;;;;;;;8.02;1.60;;;;;;;18.03;49.69;100530.47;5070946;28;20059;-74
2022/10/09 10:24:43;;;;;;;2.88;0.93;;;;;;;18.23;49.41;100518.91;5057576;28;20025;-74
2022/10/09 10:27:23;;;;;;;6.20;1.25;;;;;;;19.65;46.17;100525.47;5082834;28;20034;-71
2022/10/09 10:29:54;;;;;;;7.00;0.90;;;;;;;24.62;38.82;100534.53;5071440;28;20036;-71
2022/10/09 10:32:31;;;;;;;5.50;1.25;;;;;;;26.67;31.53;100543.06;5047983;28;20064;-72
2022/10/09 10:35:18;;;;;;;9.95;1.88;;;;;;;26.39;31.45;100527.34;5067806;28;20025;-72
2022/10/09 10:37:49;;;;;;;5.68;1.27;;;;;;;28.02;28.96;100525.88;5063228;28;20080;-72
2022/10/09 10:40:32;;;;;;;6.55;1.17;;;;;;;30.30;27.64;100512.31;5048058;28;20023;-73
2022/10/09 10:43:05;;;;;;;4.38;1.13;;;;;;;31.13;24.32;100516.03;5072445;28;20024;-72
2022/10/09 10:45:37;;;;;;;5.72;1.20;;;;;;;31.63;23.47;100517.16;5083120;28;20032;-75
2022/10/09 10:48:08;;;;;;;4.20;1.45;;;;;;;31.28;22.69;100507.53;5060527;28;20024;-75
2022/10/09 10:50:40;;;;;;;5.72;0.95;;;;;;;30.36;23.54;100510.72;5073105;28;20052;-75
2022/10/09 10:53:27;;;;;;;4.65;1.10;;;;;;;30.69;23.27;100499.47;5069732;28;20478;-75
2022/10/09 10:55:58;;;;;;;3.28;1.40;;;;;;;30.05;23.69;100484.84;5058287;28;20119;-74
2022/10/09 10:58:56;;;;;;;5.35;0.98;;;;;;;29.27;24.14;100480.44;5054062;28;20020;-74
2022/10/09 11:01:34;;;;;;;2.08;0.70;;;;;;;29.60;24.72;100470.97;5060722;28;20075;-76
2022/10/09 11:04:27;;;;;;;4.22;0.90;;;;;;;30.44;22.82;100472.84;5068351;28;20029;-74
2022/10/09 11:07:28;;;;;;;;;;;;;;;;;;;;;
2022/10/09 11:10:24;;;;;;;3.65;1.10;;;;;;;31.79;21.46;100466.63;5081499;28;20111;-73
2022/10/09 11:12:53;;;;;;;1.98;0.77;;;;;;;35.52;20.02;100473.06;5066351;28;20099;-73
2022/10/09 11:15:53;;;;;;;8.50;0.90;;;;;;;36.23;17.06;100454.84;5068665;28;20033;-75
2022/10/09 11:18:22;;;;;;;3.15;0.80;;;;;;;36.66;16.29;100457.47;5066192;28;20037;-73
2022/10/09 11:20:53;;;;;;;7.25;1.35;;;;;;;32.89;18.69;100454.16;5050839;28;20079;-73
2022/10/09 11:23:40;;;;;;;3.72;1.13;;;;;;;32.24;20.15;100459.50;5066783;28;20033;-74
2022/10/09 11:26:22;;;;;;;4.95;1.00;;;;;;;30.06;21.78;100449.81;5076421;28;20028;-73
2022/10/09 11:28:55;;;;;;;6.38;1.42;;;;;;;26.91;25.48;100430.50;5053854;28;20021;-73
2022/10/09 11:31:24;;;;;;;3.17;1.63;;;;;;;27.22;25.97;100433.31;5041552;28;20070;-74
2022/10/09 11:33:58;;;;;;;3.80;0.80;;;;;;;30.52;23.92;100439.00;5074576;28;20091;-73
2022/10/09 11:36:32;;;;;;;5.18;1.45;;;;;;;32.44;20.37;100439.97;5070233;28;20024;-74
2022/10/09 11:39:00;;;;;;;7.00;1.35;;;;;;;29.39;23.40;100454.75;5069257;28;20029;-73
2022/10/09 11:41:28;;;;;;;4.75;1.00;;;;;;;30.38;22.58;100443.41;5076985;28;20074;-74
2022/10/09 11:44:35;;;;;;;4.05;1.45;;;;;;;33.33;20.66;100443.22;5070078;28;20040;-74
2022/10/09 11:47:09;;;;;;;5.00;1.52;;;;;;;34.07;19.21;100426.44;5051975;28;20044;-74